TimeEST,TemperatureF,Dew PointF,Humidity,Sea Level PressureIn,VisibilityMPH,Wind Direction,Wind SpeedMPH,Gust SpeedMPH,PrecipitationIn,Events,Conditions,WindDirDegrees,DateUTC
12:21 AM,33.8,30.2,87,29.79,2.0,Calm,Calm,-,N/A,,Mostly Cloudy,0,2013-02-14 05:21:00
12:25 AM,33.8,30.2,87,29.79,1.8,Calm,Calm,-,N/A,,Mostly Cloudy,0,2013-02-14 05:25:00
12:33 AM,33.8,30.2,87,29.79,3.0,Calm,Calm,-,N/A,,Overcast,0,2013-02-14 05:33:00
12:53 AM,34.0,30.9,89,29.81,5.0,Calm,Calm,-,N/A,,Overcast,0,2013-02-14 05:53:00
1:53 AM,37.0,30.0,76,29.84,10.0,Calm,Calm,-,N/A,,Overcast,0,2013-02-14 06:53:00
2:42 AM,37.4,28.4,70,29.84,10.0,Calm,Calm,-,N/A,,Mostly Cloudy,0,2013-02-14 07:42:00
2:53 AM,37.0,28.0,70,29.86,10.0,North,5.8,-,N/A,,Mostly Cloudy,360,2013-02-14 07:53:00
3:53 AM,36.0,26.1,67,29.89,10.0,North,4.6,-,N/A,,Mostly Cloudy,10,2013-02-14 08:53:00
4:53 AM,34.0,26.1,73,29.91,10.0,NW,10.4,-,N/A,,Scattered Clouds,310,2013-02-14 09:53:00
5:53 AM,32.0,24.1,73,29.94,10.0,Calm,Calm,-,N/A,,Clear,0,2013-02-14 10:53:00
6:53 AM,33.1,23.0,66,29.96,10.0,WNW,10.4,-,N/A,,Clear,300,2013-02-14 11:53:00
7:53 AM,34.0,23.0,64,29.98,10.0,WNW,6.9,-,N/A,,Clear,300,2013-02-14 12:53:00
8:53 AM,37.0,25.0,62,29.99,10.0,NW,5.8,-,N/A,,Clear,310,2013-02-14 13:53:00
9:53 AM,39.0,26.1,60,30.00,10.0,Calm,Calm,-,N/A,,Clear,0,2013-02-14 14:53:00
10:53 AM,41.0,28.0,60,30.00,10.0,WSW,5.8,-,N/A,,Clear,240,2013-02-14 15:53:00
11:53 AM,44.1,28.0,53,29.99,10.0,WSW,5.8,-,N/A,,Clear,240,2013-02-14 16:53:00
12:53 PM,45.0,27.0,49,29.99,10.0,WSW,3.5,-,N/A,,Scattered Clouds,240,2013-02-14 17:53:00
1:53 PM,48.0,27.0,44,29.96,10.0,SW,6.9,-,N/A,,Partly Cloudy,220,2013-02-14 18:53:00
2:53 PM,46.9,25.0,42,29.95,10.0,SSW,4.6,-,N/A,,Clear,200,2013-02-14 19:53:00
3:53 PM,48.9,26.1,41,29.95,10.0,Variable,5.8,-,N/A,,Overcast,0,2013-02-14 20:53:00
4:53 PM,46.9,27.0,46,29.94,10.0,SSE,4.6,-,N/A,,Scattered Clouds,160,2013-02-14 21:53:00
5:53 PM,43.0,26.1,51,29.96,10.0,South,4.6,-,N/A,,Clear,170,2013-02-14 22:53:00
6:53 PM,42.1,26.1,53,29.98,10.0,SSE,4.6,-,N/A,,Scattered Clouds,160,2013-02-14 23:53:00
7:53 PM,37.9,25.0,60,29.99,10.0,SE,3.5,-,N/A,,Clear,140,2013-02-15 00:53:00
8:53 PM,36.0,25.0,64,29.98,10.0,Calm,Calm,-,N/A,,Clear,0,2013-02-15 01:53:00
9:53 PM,33.1,25.0,72,29.98,10.0,Calm,Calm,-,N/A,,Clear,0,2013-02-15 02:53:00
10:53 PM,30.0,24.1,79,29.97,10.0,SSW,3.5,-,N/A,,Clear,210,2013-02-15 03:53:00
11:53 PM,32.0,25.0,75,29.97,9.0,SSW,3.5,-,N/A,,Clear,200,2013-02-15 04:53:00